sensor_id;sensor_type;location;lat;lon;timestamp;P1;durP1;ratioP1;P2;durP2;ratioP2
10343;SDS011;5217;43.960;10.954;2024-03-29T00:00:58;20.92;;;8.30;;
10343;SDS011;5217;43.960;10.954;2024-03-29T00:03:25;20.50;;;8.15;;
10343;SDS011;5217;43.960;10.954;2024-03-29T00:05:51;19.20;;;7.78;;
10343;SDS011;5217;43.960;10.954;2024-03-29T00:08:18;19.70;;;8.15;;
10343;SDS011;5217;43.960;10.954;2024-03-29T00:10:46;17.05;;;7.45;;
10343;SDS011;5217;43.960;10.954;2024-03-29T00:13:13;20.35;;;8.07;;
10343;SDS011;5217;43.960;10.954;2024-03-29T00:15:41;18.98;;;7.30;;
10343;SDS011;5217;43.960;10.954;2024-03-29T00:18:07;20.00;;;8.00;;
10343;SDS011;5217;43.960;10.954;2024-03-29T00:20:34;15.77;;;7.00;;
10343;SDS011;5217;43.960;10.954;2024-03-29T00:23:00;19.83;;;7.90;;
10343;SDS011;5217;43.960;10.954;2024-03-29T00:25:27;16.20;;;7.90;;
10343;SDS011;5217;43.960;10.954;2024-03-29T00:27:53;20.90;;;8.10;;
10343;SDS011;5217;43.960;10.954;2024-03-29T00:30:20;17.38;;;7.40;;
10343;SDS011;5217;43.960;10.954;2024-03-29T00:32:48;16.07;;;7.40;;
10343;SDS011;5217;43.960;10.954;2024-03-29T00:35:15;22.63;;;7.97;;
10343;SDS011;5217;43.960;10.954;2024-03-29T00:37:41;17.10;;;7.15;;
10343;SDS011;5217;43.960;10.954;2024-03-29T00:40:08;17.13;;;6.38;;
10343;SDS011;5217;43.960;10.954;2024-03-29T00:42:35;13.75;;;6.93;;
10343;SDS011;5217;43.960;10.954;2024-03-29T00:45:02;18.50;;;7.68;;
10343;SDS011;5217;43.960;10.954;2024-03-29T00:47:28;19.40;;;7.43;;
10343;SDS011;5217;43.960;10.954;2024-03-29T00:49:56;16.97;;;7.03;;
10343;SDS011;5217;43.960;10.954;2024-03-29T00:52:23;16.70;;;6.80;;
10343;SDS011;5217;43.960;10.954;2024-03-29T00:54:49;16.20;;;6.57;;
10343;SDS011;5217;43.960;10.954;2024-03-29T00:57:16;15.77;;;6.40;;
10343;SDS011;5217;43.960;10.954;2024-03-29T00:59:43;16.35;;;6.93;;
10343;SDS011;5217;43.960;10.954;2024-03-29T01:02:09;15.15;;;6.25;;
10343;SDS011;5217;43.960;10.954;2024-03-29T01:04:36;16.48;;;6.85;;
10343;SDS011;5217;43.960;10.954;2024-03-29T01:07:04;16.38;;;7.38;;
10343;SDS011;5217;43.960;10.954;2024-03-29T01:09:31;14.63;;;6.05;;
10343;SDS011;5217;43.960;10.954;2024-03-29T01:11:57;21.20;;;7.43;;
10343;SDS011;5217;43.960;10.954;2024-03-29T01:14:24;17.58;;;7.10;;
10343;SDS011;5217;43.960;10.954;2024-03-29T01:16:51;18.45;;;7.15;;
10343;SDS011;5217;43.960;10.954;2024-03-29T01:19:17;18.23;;;6.78;;
10343;SDS011;5217;43.960;10.954;2024-03-29T01:21:44;18.83;;;6.32;;
10343;SDS011;5217;43.960;10.954;2024-03-29T01:24:12;17.27;;;6.68;;
10343;SDS011;5217;43.960;10.954;2024-03-29T01:26:39;17.85;;;5.78;;
10343;SDS011;5217;43.960;10.954;2024-03-29T01:29:05;13.57;;;6.03;;
10343;SDS011;5217;43.960;10.954;2024-03-29T01:31:32;14.45;;;5.88;;
10343;SDS011;5217;43.960;10.954;2024-03-29T01:33:59;17.63;;;6.72;;
10343;SDS011;5217;43.960;10.954;2024-03-29T01:36:25;18.48;;;6.40;;
10343;SDS011;5217;43.960;10.954;2024-03-29T01:38:52;18.30;;;6.40;;
10343;SDS011;5217;43.960;10.954;2024-03-29T01:41:20;19.00;;;6.88;;
10343;SDS011;5217;43.960;10.954;2024-03-29T01:43:47;14.20;;;6.43;;
10343;SDS011;5217;43.960;10.954;2024-03-29T01:46:15;17.43;;;6.60;;
10343;SDS011;5217;43.960;10.954;2024-03-29T01:48:42;20.50;;;6.60;;
10343;SDS011;5217;43.960;10.954;2024-03-29T01:51:10;14.25;;;6.57;;
10343;SDS011;5217;43.960;10.954;2024-03-29T01:53:38;17.02;;;6.32;;
10343;SDS011;5217;43.960;10.954;2024-03-29T01:56:06;16.27;;;6.83;;
10343;SDS011;5217;43.960;10.954;2024-03-29T01:58:36;19.25;;;7.20;;
10343;SDS011;5217;43.960;10.954;2024-03-29T02:01:04;19.13;;;7.10;;
10343;SDS011;5217;43.960;10.954;2024-03-29T02:03:32;16.02;;;6.63;;
10343;SDS011;5217;43.960;10.954;2024-03-29T02:06:00;16.95;;;6.53;;
10343;SDS011;5217;43.960;10.954;2024-03-29T02:08:29;14.95;;;6.10;;
10343;SDS011;5217;43.960;10.954;2024-03-29T02:10:56;16.50;;;6.45;;
10343;SDS011;5217;43.960;10.954;2024-03-29T02:13:24;17.67;;;6.90;;
10343;SDS011;5217;43.960;10.954;2024-03-29T02:15:53;15.52;;;6.40;;
10343;SDS011;5217;43.960;10.954;2024-03-29T02:18:21;18.58;;;6.22;;
10343;SDS011;5217;43.960;10.954;2024-03-29T02:20:48;14.05;;;5.88;;
10343;SDS011;5217;43.960;10.954;2024-03-29T02:23:17;16.92;;;6.43;;
10343;SDS011;5217;43.960;10.954;2024-03-29T02:25:47;16.23;;;6.50;;
10343;SDS011;5217;43.960;10.954;2024-03-29T02:28:14;16.10;;;6.45;;
10343;SDS011;5217;43.960;10.954;2024-03-29T02:30:43;16.25;;;6.10;;
10343;SDS011;5217;43.960;10.954;2024-03-29T02:33:11;16.38;;;5.85;;
10343;SDS011;5217;43.960;10.954;2024-03-29T02:35:38;17.60;;;6.70;;
10343;SDS011;5217;43.960;10.954;2024-03-29T02:38:06;15.45;;;6.05;;
10343;SDS011;5217;43.960;10.954;2024-03-29T02:40:33;14.27;;;5.50;;
10343;SDS011;5217;43.960;10.954;2024-03-29T02:43:03;11.60;;;5.63;;
10343;SDS011;5217;43.960;10.954;2024-03-29T02:45:30;14.43;;;5.35;;
10343;SDS011;5217;43.960;10.954;2024-03-29T02:47:58;16.70;;;6.05;;
10343;SDS011;5217;43.960;10.954;2024-03-29T02:50:25;14.55;;;5.85;;
10343;SDS011;5217;43.960;10.954;2024-03-29T02:52:52;18.83;;;6.95;;
10343;SDS011;5217;43.960;10.954;2024-03-29T02:55:20;16.40;;;6.70;;
10343;SDS011;5217;43.960;10.954;2024-03-29T02:57:46;15.38;;;6.18;;
10343;SDS011;5217;43.960;10.954;2024-03-29T03:00:16;16.52;;;6.20;;
10343;SDS011;5217;43.960;10.954;2024-03-29T03:02:42;18.13;;;6.40;;
10343;SDS011;5217;43.960;10.954;2024-03-29T03:05:10;17.58;;;6.35;;
10343;SDS011;5217;43.960;10.954;2024-03-29T03:07:36;16.58;;;6.90;;
10343;SDS011;5217;43.960;10.954;2024-03-29T03:10:22;16.90;;;6.13;;
10343;SDS011;5217;43.960;10.954;2024-03-29T03:13:07;14.23;;;6.38;;
10343;SDS011;5217;43.960;10.954;2024-03-29T03:15:36;14.70;;;6.93;;
10343;SDS011;5217;43.960;10.954;2024-03-29T03:18:04;14.60;;;6.55;;
10343;SDS011;5217;43.960;10.954;2024-03-29T03:20:32;19.05;;;7.15;;
10343;SDS011;5217;43.960;10.954;2024-03-29T03:22:58;16.37;;;6.90;;
10343;SDS011;5217;43.960;10.954;2024-03-29T03:25:26;17.08;;;6.07;;
10343;SDS011;5217;43.960;10.954;2024-03-29T03:27:53;18.50;;;7.07;;
10343;SDS011;5217;43.960;10.954;2024-03-29T03:30:21;14.68;;;6.55;;
10343;SDS011;5217;43.960;10.954;2024-03-29T03:32:49;15.63;;;6.55;;
10343;SDS011;5217;43.960;10.954;2024-03-29T03:35:16;14.55;;;6.55;;
10343;SDS011;5217;43.960;10.954;2024-03-29T03:37:43;17.27;;;6.67;;
10343;SDS011;5217;43.960;10.954;2024-03-29T03:40:11;15.50;;;6.22;;
10343;SDS011;5217;43.960;10.954;2024-03-29T03:42:37;16.83;;;6.93;;
10343;SDS011;5217;43.960;10.954;2024-03-29T03:45:06;17.30;;;7.13;;
10343;SDS011;5217;43.960;10.954;2024-03-29T03:47:33;15.82;;;6.78;;
10343;SDS011;5217;43.960;10.954;2024-03-29T03:50:02;15.77;;;6.80;;
10343;SDS011;5217;43.960;10.954;2024-03-29T03:52:28;20.55;;;7.00;;
10343;SDS011;5217;43.960;10.954;2024-03-29T03:54:56;15.35;;;7.07;;
10343;SDS011;5217;43.960;10.954;2024-03-29T03:57:22;16.48;;;6.80;;
10343;SDS011;5217;43.960;10.954;2024-03-29T03:59:50;16.40;;;6.97;;
10343;SDS011;5217;43.960;10.954;2024-03-29T04:02:17;17.10;;;7.45;;
10343;SDS011;5217;43.960;10.954;2024-03-29T04:04:46;13.63;;;6.33;;
10343;SDS011;5217;43.960;10.954;2024-03-29T04:07:14;17.85;;;7.15;;
10343;SDS011;5217;43.960;10.954;2024-03-29T04:09:42;18.25;;;7.00;;
10343;SDS011;5217;43.960;10.954;2024-03-29T04:12:08;17.20;;;6.87;;
10343;SDS011;5217;43.960;10.954;2024-03-29T04:14:36;16.97;;;6.50;;
10343;SDS011;5217;43.960;10.954;2024-03-29T04:17:03;15.20;;;6.60;;
10343;SDS011;5217;43.960;10.954;2024-03-29T04:19:30;14.27;;;6.57;;
10343;SDS011;5217;43.960;10.954;2024-03-29T04:21:57;15.73;;;6.40;;
10343;SDS011;5217;43.960;10.954;2024-03-29T04:24:26;13.77;;;6.38;;
10343;SDS011;5217;43.960;10.954;2024-03-29T04:26:54;17.05;;;7.13;;
10343;SDS011;5217;43.960;10.954;2024-03-29T04:29:21;15.95;;;6.68;;
10343;SDS011;5217;43.960;10.954;2024-03-29T04:31:48;15.70;;;7.07;;
10343;SDS011;5217;43.960;10.954;2024-03-29T04:34:15;15.30;;;6.10;;
10343;SDS011;5217;43.960;10.954;2024-03-29T04:36:42;17.50;;;7.47;;
10343;SDS011;5217;43.960;10.954;2024-03-29T04:39:10;16.60;;;6.95;;
10343;SDS011;5217;43.960;10.954;2024-03-29T04:41:39;22.23;;;7.67;;
10343;SDS011;5217;43.960;10.954;2024-03-29T04:44:06;15.30;;;6.13;;
10343;SDS011;5217;43.960;10.954;2024-03-29T04:46:34;17.50;;;6.53;;
10343;SDS011;5217;43.960;10.954;2024-03-29T04:49:01;15.40;;;6.57;;
10343;SDS011;5217;43.960;10.954;2024-03-29T04:51:29;17.13;;;6.90;;
10343;SDS011;5217;43.960;10.954;2024-03-29T04:53:57;19.40;;;7.50;;
10343;SDS011;5217;43.960;10.954;2024-03-29T04:56:24;18.65;;;7.00;;
10343;SDS011;5217;43.960;10.954;2024-03-29T04:58:54;22.92;;;7.55;;
10343;SDS011;5217;43.960;10.954;2024-03-29T05:01:22;20.70;;;7.13;;
10343;SDS011;5217;43.960;10.954;2024-03-29T05:03:50;18.90;;;7.32;;
10343;SDS011;5217;43.960;10.954;2024-03-29T05:06:18;16.15;;;6.88;;
10343;SDS011;5217;43.960;10.954;2024-03-29T05:08:46;15.90;;;6.45;;
10343;SDS011;5217;43.960;10.954;2024-03-29T05:11:13;19.47;;;6.80;;
10343;SDS011;5217;43.960;10.954;2024-03-29T05:13:41;16.60;;;6.47;;
10343;SDS011;5217;43.960;10.954;2024-03-29T05:16:10;15.25;;;6.15;;
10343;SDS011;5217;43.960;10.954;2024-03-29T05:18:37;17.58;;;5.60;;
10343;SDS011;5217;43.960;10.954;2024-03-29T05:21:05;19.40;;;6.75;;
10343;SDS011;5217;43.960;10.954;2024-03-29T05:23:33;17.73;;;6.28;;
10343;SDS011;5217;43.960;10.954;2024-03-29T05:26:00;21.40;;;7.40;;
10343;SDS011;5217;43.960;10.954;2024-03-29T05:28:28;18.33;;;6.67;;
10343;SDS011;5217;43.960;10.954;2024-03-29T05:30:55;12.37;;;6.07;;
10343;SDS011;5217;43.960;10.954;2024-03-29T05:33:24;16.52;;;6.43;;
10343;SDS011;5217;43.960;10.954;2024-03-29T05:35:52;15.90;;;6.07;;
10343;SDS011;5217;43.960;10.954;2024-03-29T05:38:19;17.07;;;6.67;;
10343;SDS011;5217;43.960;10.954;2024-03-29T05:40:47;17.33;;;6.78;;
10343;SDS011;5217;43.960;10.954;2024-03-29T05:43:13;14.77;;;6.63;;
10343;SDS011;5217;43.960;10.954;2024-03-29T05:45:41;21.87;;;7.30;;
10343;SDS011;5217;43.960;10.954;2024-03-29T05:48:09;17.63;;;6.43;;
10343;SDS011;5217;43.960;10.954;2024-03-29T05:50:38;18.55;;;6.63;;
10343;SDS011;5217;43.960;10.954;2024-03-29T05:53:05;18.83;;;6.35;;
10343;SDS011;5217;43.960;10.954;2024-03-29T05:55:33;20.55;;;6.72;;
10343;SDS011;5217;43.960;10.954;2024-03-29T05:58:00;18.67;;;7.17;;
10343;SDS011;5217;43.960;10.954;2024-03-29T06:00:28;18.50;;;6.73;;
10343;SDS011;5217;43.960;10.954;2024-03-29T06:02:56;17.88;;;6.03;;
10343;SDS011;5217;43.960;10.954;2024-03-29T06:05:23;17.50;;;6.63;;
10343;SDS011;5217;43.960;10.954;2024-03-29T06:07:52;18.27;;;7.17;;
10343;SDS011;5217;43.960;10.954;2024-03-29T06:10:20;21.47;;;7.47;;
10343;SDS011;5217;43.960;10.954;2024-03-29T06:12:47;18.93;;;7.63;;
10343;SDS011;5217;43.960;10.954;2024-03-29T06:15:15;16.55;;;6.10;;
10343;SDS011;5217;43.960;10.954;2024-03-29T06:18:15;20.95;;;8.15;;
10343;SDS011;5217;43.960;10.954;2024-03-29T06:20:44;18.77;;;7.07;;
10343;SDS011;5217;43.960;10.954;2024-03-29T06:23:13;14.32;;;6.20;;
10343;SDS011;5217;43.960;10.954;2024-03-29T06:25:40;14.13;;;6.37;;
10343;SDS011;5217;43.960;10.954;2024-03-29T06:28:08;19.05;;;6.97;;
10343;SDS011;5217;43.960;10.954;2024-03-29T06:30:36;15.82;;;6.38;;
10343;SDS011;5217;43.960;10.954;2024-03-29T06:33:03;17.35;;;7.32;;
10343;SDS011;5217;43.960;10.954;2024-03-29T06:35:33;14.93;;;6.72;;
10343;SDS011;5217;43.960;10.954;2024-03-29T06:38:01;17.90;;;6.22;;
10343;SDS011;5217;43.960;10.954;2024-03-29T06:40:31;17.80;;;6.32;;
10343;SDS011;5217;43.960;10.954;2024-03-29T06:42:58;18.85;;;7.18;;
10343;SDS011;5217;43.960;10.954;2024-03-29T06:45:28;18.20;;;8.07;;
10343;SDS011;5217;43.960;10.954;2024-03-29T06:47:56;18.38;;;7.05;;
10343;SDS011;5217;43.960;10.954;2024-03-29T06:50:22;19.95;;;7.88;;
10343;SDS011;5217;43.960;10.954;2024-03-29T06:52:50;20.35;;;7.65;;
10343;SDS011;5217;43.960;10.954;2024-03-29T06:55:18;19.13;;;7.00;;
10343;SDS011;5217;43.960;10.954;2024-03-29T06:57:47;17.13;;;7.15;;
10343;SDS011;5217;43.960;10.954;2024-03-29T07:00:14;16.23;;;6.75;;
10343;SDS011;5217;43.960;10.954;2024-03-29T07:02:42;16.88;;;7.28;;
10343;SDS011;5217;43.960;10.954;2024-03-29T07:05:10;13.98;;;6.18;;
10343;SDS011;5217;43.960;10.954;2024-03-29T07:07:38;19.75;;;7.55;;
10343;SDS011;5217;43.960;10.954;2024-03-29T07:10:06;19.83;;;8.07;;
10343;SDS011;5217;43.960;10.954;2024-03-29T07:12:34;21.10;;;7.28;;
10343;SDS011;5217;43.960;10.954;2024-03-29T07:15:03;21.98;;;7.70;;
10343;SDS011;5217;43.960;10.954;2024-03-29T07:17:32;18.73;;;7.20;;
10343;SDS011;5217;43.960;10.954;2024-03-29T07:19:59;16.00;;;6.88;;
10343;SDS011;5217;43.960;10.954;2024-03-29T07:22:28;20.17;;;7.43;;
10343;SDS011;5217;43.960;10.954;2024-03-29T07:24:56;15.52;;;6.03;;
10343;SDS011;5217;43.960;10.954;2024-03-29T07:27:23;16.75;;;6.63;;
10343;SDS011;5217;43.960;10.954;2024-03-29T07:29:53;13.40;;;5.90;;
10343;SDS011;5217;43.960;10.954;2024-03-29T07:32:22;13.93;;;5.43;;
10343;SDS011;5217;43.960;10.954;2024-03-29T07:34:49;16.00;;;6.35;;
10343;SDS011;5217;43.960;10.954;2024-03-29T07:37:17;16.58;;;6.50;;
10343;SDS011;5217;43.960;10.954;2024-03-29T07:39:46;15.32;;;5.88;;
10343;SDS011;5217;43.960;10.954;2024-03-29T07:42:13;15.85;;;5.43;;
10343;SDS011;5217;43.960;10.954;2024-03-29T07:44:41;18.70;;;5.85;;
10343;SDS011;5217;43.960;10.954;2024-03-29T07:47:09;11.32;;;5.28;;
10343;SDS011;5217;43.960;10.954;2024-03-29T07:49:40;12.77;;;4.28;;
10343;SDS011;5217;43.960;10.954;2024-03-29T07:52:07;19.98;;;5.72;;
10343;SDS011;5217;43.960;10.954;2024-03-29T07:54:35;17.00;;;5.28;;
10343;SDS011;5217;43.960;10.954;2024-03-29T07:57:04;17.45;;;5.15;;
10343;SDS011;5217;43.960;10.954;2024-03-29T07:59:34;15.63;;;5.18;;
10343;SDS011;5217;43.960;10.954;2024-03-29T08:02:04;13.10;;;4.72;;
10343;SDS011;5217;43.960;10.954;2024-03-29T08:04:32;19.10;;;5.13;;
10343;SDS011;5217;43.960;10.954;2024-03-29T08:07:01;15.63;;;4.90;;
10343;SDS011;5217;43.960;10.954;2024-03-29T08:09:29;12.55;;;3.90;;
10343;SDS011;5217;43.960;10.954;2024-03-29T08:11:56;16.88;;;4.82;;
10343;SDS011;5217;43.960;10.954;2024-03-29T08:14:24;10.38;;;4.40;;
10343;SDS011;5217;43.960;10.954;2024-03-29T08:16:53;9.30;;;3.72;;
10343;SDS011;5217;43.960;10.954;2024-03-29T08:19:21;12.32;;;4.20;;
10343;SDS011;5217;43.960;10.954;2024-03-29T08:21:48;8.77;;;3.78;;
10343;SDS011;5217;43.960;10.954;2024-03-29T08:24:17;12.82;;;4.15;;
10343;SDS011;5217;43.960;10.954;2024-03-29T08:26:45;8.07;;;3.40;;
10343;SDS011;5217;43.960;10.954;2024-03-29T08:29:12;18.83;;;5.63;;
10343;SDS011;5217;43.960;10.954;2024-03-29T08:31:40;18.00;;;5.38;;
10343;SDS011;5217;43.960;10.954;2024-03-29T08:34:07;16.50;;;4.80;;
10343;SDS011;5217;43.960;10.954;2024-03-29T08:36:38;17.45;;;5.40;;
10343;SDS011;5217;43.960;10.954;2024-03-29T08:39:06;19.50;;;5.10;;
10343;SDS011;5217;43.960;10.954;2024-03-29T08:41:35;11.23;;;4.30;;
10343;SDS011;5217;43.960;10.954;2024-03-29T08:44:02;13.68;;;4.28;;
10343;SDS011;5217;43.960;10.954;2024-03-29T08:46:30;14.55;;;4.50;;
10343;SDS011;5217;43.960;10.954;2024-03-29T08:48:58;14.05;;;4.80;;
10343;SDS011;5217;43.960;10.954;2024-03-29T08:51:25;20.42;;;5.40;;
10343;SDS011;5217;43.960;10.954;2024-03-29T08:53:54;14.40;;;5.00;;
10343;SDS011;5217;43.960;10.954;2024-03-29T08:56:23;15.27;;;4.43;;
10343;SDS011;5217;43.960;10.954;2024-03-29T08:58:52;17.65;;;4.78;;
10343;SDS011;5217;43.960;10.954;2024-03-29T09:01:19;18.58;;;5.28;;
10343;SDS011;5217;43.960;10.954;2024-03-29T09:03:47;20.80;;;4.97;;
10343;SDS011;5217;43.960;10.954;2024-03-29T09:06:14;23.45;;;5.60;;
10343;SDS011;5217;43.960;10.954;2024-03-29T09:08:42;13.45;;;4.57;;
10343;SDS011;5217;43.960;10.954;2024-03-29T09:11:10;13.80;;;4.55;;
10343;SDS011;5217;43.960;10.954;2024-03-29T09:13:37;14.77;;;4.32;;
10343;SDS011;5217;43.960;10.954;2024-03-29T09:16:07;16.60;;;5.13;;
10343;SDS011;5217;43.960;10.954;2024-03-29T09:18:35;15.55;;;4.43;;
10343;SDS011;5217;43.960;10.954;2024-03-29T09:21:02;11.55;;;4.25;;
10343;SDS011;5217;43.960;10.954;2024-03-29T09:23:31;16.80;;;4.50;;
10343;SDS011;5217;43.960;10.954;2024-03-29T09:25:58;14.38;;;4.30;;
10343;SDS011;5217;43.960;10.954;2024-03-29T09:28:26;17.98;;;5.03;;
10343;SDS011;5217;43.960;10.954;2024-03-29T09:30:57;20.55;;;6.13;;
10343;SDS011;5217;43.960;10.954;2024-03-29T09:33:26;15.30;;;4.82;;
10343;SDS011;5217;43.960;10.954;2024-03-29T09:35:54;14.48;;;4.10;;
10343;SDS011;5217;43.960;10.954;2024-03-29T09:38:24;16.27;;;4.97;;
10343;SDS011;5217;43.960;10.954;2024-03-29T09:40:53;16.67;;;4.90;;
10343;SDS011;5217;43.960;10.954;2024-03-29T09:43:22;14.50;;;5.03;;
10343;SDS011;5217;43.960;10.954;2024-03-29T09:45:50;14.52;;;4.55;;
10343;SDS011;5217;43.960;10.954;2024-03-29T09:48:19;13.77;;;4.60;;
10343;SDS011;5217;43.960;10.954;2024-03-29T09:50:50;17.15;;;4.85;;
10343;SDS011;5217;43.960;10.954;2024-03-29T09:53:18;16.10;;;4.93;;
10343;SDS011;5217;43.960;10.954;2024-03-29T09:55:47;11.82;;;4.30;;
10343;SDS011;5217;43.960;10.954;2024-03-29T09:58:14;17.05;;;5.03;;
10343;SDS011;5217;43.960;10.954;2024-03-29T10:00:42;15.85;;;4.22;;
10343;SDS011;5217;43.960;10.954;2024-03-29T10:03:10;17.73;;;4.95;;
10343;SDS011;5217;43.960;10.954;2024-03-29T10:05:37;11.18;;;4.15;;
10343;SDS011;5217;43.960;10.954;2024-03-29T10:08:07;10.73;;;4.00;;
10343;SDS011;5217;43.960;10.954;2024-03-29T10:10:35;11.68;;;4.15;;
10343;SDS011;5217;43.960;10.954;2024-03-29T10:13:02;14.68;;;5.13;;
10343;SDS011;5217;43.960;10.954;2024-03-29T10:15:30;12.70;;;4.30;;
10343;SDS011;5217;43.960;10.954;2024-03-29T10:18:02;15.70;;;4.47;;
10343;SDS011;5217;43.960;10.954;2024-03-29T10:20:30;14.48;;;4.82;;
10343;SDS011;5217;43.960;10.954;2024-03-29T10:22:58;15.63;;;4.43;;
10343;SDS011;5217;43.960;10.954;2024-03-29T10:25:32;20.48;;;5.15;;
10343;SDS011;5217;43.960;10.954;2024-03-29T10:28:00;17.17;;;4.72;;
10343;SDS011;5217;43.960;10.954;2024-03-29T10:30:28;16.80;;;4.53;;
10343;SDS011;5217;43.960;10.954;2024-03-29T10:32:56;14.50;;;4.20;;
10343;SDS011;5217;43.960;10.954;2024-03-29T10:35:24;18.42;;;4.75;;
10343;SDS011;5217;43.960;10.954;2024-03-29T10:37:52;21.15;;;5.22;;
10343;SDS011;5217;43.960;10.954;2024-03-29T10:40:20;17.50;;;4.75;;
10343;SDS011;5217;43.960;10.954;2024-03-29T10:42:51;26.13;;;5.60;;
10343;SDS011;5217;43.960;10.954;2024-03-29T10:45:19;14.93;;;4.65;;
10343;SDS011;5217;43.960;10.954;2024-03-29T10:47:48;23.38;;;5.13;;
10343;SDS011;5217;43.960;10.954;2024-03-29T10:50:18;15.13;;;4.82;;
10343;SDS011;5217;43.960;10.954;2024-03-29T10:52:46;13.75;;;4.30;;
10343;SDS011;5217;43.960;10.954;2024-03-29T10:55:15;16.35;;;3.72;;
10343;SDS011;5217;43.960;10.954;2024-03-29T10:57:43;22.15;;;5.38;;
10343;SDS011;5217;43.960;10.954;2024-03-29T11:00:14;21.23;;;5.72;;
10343;SDS011;5217;43.960;10.954;2024-03-29T11:02:48;17.20;;;4.93;;
10343;SDS011;5217;43.960;10.954;2024-03-29T11:05:16;25.00;;;6.00;;
10343;SDS011;5217;43.960;10.954;2024-03-29T11:07:44;19.48;;;5.18;;
10343;SDS011;5217;43.960;10.954;2024-03-29T11:10:14;20.98;;;4.93;;
10343;SDS011;5217;43.960;10.954;2024-03-29T11:12:47;24.75;;;5.38;;
10343;SDS011;5217;43.960;10.954;2024-03-29T11:15:22;21.30;;;4.00;;
10343;SDS011;5217;43.960;10.954;2024-03-29T11:17:54;17.00;;;5.18;;
10343;SDS011;5217;43.960;10.954;2024-03-29T11:20:22;14.52;;;4.10;;
10343;SDS011;5217;43.960;10.954;2024-03-29T11:22:59;17.13;;;4.53;;
10343;SDS011;5217;43.960;10.954;2024-03-29T11:25:37;24.73;;;5.90;;
10343;SDS011;5217;43.960;10.954;2024-03-29T11:28:05;26.95;;;5.63;;
10343;SDS011;5217;43.960;10.954;2024-03-29T11:30:43;18.08;;;4.63;;
10343;SDS011;5217;43.960;10.954;2024-03-29T11:33:29;16.65;;;4.50;;
10343;SDS011;5217;43.960;10.954;2024-03-29T11:35:57;19.73;;;5.20;;
10343;SDS011;5217;43.960;10.954;2024-03-29T11:38:31;18.55;;;4.85;;
10343;SDS011;5217;43.960;10.954;2024-03-29T11:41:03;20.25;;;5.18;;
10343;SDS011;5217;43.960;10.954;2024-03-29T11:43:31;24.48;;;4.85;;
10343;SDS011;5217;43.960;10.954;2024-03-29T11:46:00;20.17;;;5.20;;
10343;SDS011;5217;43.960;10.954;2024-03-29T11:48:28;19.73;;;4.60;;
10343;SDS011;5217;43.960;10.954;2024-03-29T11:50:57;19.02;;;4.47;;
10343;SDS011;5217;43.960;10.954;2024-03-29T11:53:25;17.95;;;4.43;;
10343;SDS011;5217;43.960;10.954;2024-03-29T11:55:54;26.13;;;6.10;;
10343;SDS011;5217;43.960;10.954;2024-03-29T11:58:22;29.25;;;6.10;;
10343;SDS011;5217;43.960;10.954;2024-03-29T12:00:50;25.90;;;5.72;;
10343;SDS011;5217;43.960;10.954;2024-03-29T12:03:19;21.42;;;4.95;;
10343;SDS011;5217;43.960;10.954;2024-03-29T12:05:47;28.42;;;6.13;;
10343;SDS011;5217;43.960;10.954;2024-03-29T12:08:16;23.90;;;6.18;;
10343;SDS011;5217;43.960;10.954;2024-03-29T12:10:43;32.17;;;6.68;;
10343;SDS011;5217;43.960;10.954;2024-03-29T12:13:11;27.85;;;5.72;;
10343;SDS011;5217;43.960;10.954;2024-03-29T12:15:40;31.30;;;6.82;;
10343;SDS011;5217;43.960;10.954;2024-03-29T12:18:07;25.15;;;6.00;;
10343;SDS011;5217;43.960;10.954;2024-03-29T12:20:38;28.02;;;6.15;;
10343;SDS011;5217;43.960;10.954;2024-03-29T12:23:06;26.38;;;5.93;;
10343;SDS011;5217;43.960;10.954;2024-03-29T12:25:35;25.48;;;6.05;;
10343;SDS011;5217;43.960;10.954;2024-03-29T12:28:03;29.23;;;6.60;;
10343;SDS011;5217;43.960;10.954;2024-03-29T12:30:30;35.85;;;7.05;;
10343;SDS011;5217;43.960;10.954;2024-03-29T12:33:02;34.90;;;6.75;;
10343;SDS011;5217;43.960;10.954;2024-03-29T12:35:30;33.83;;;6.93;;
10343;SDS011;5217;43.960;10.954;2024-03-29T12:37:59;28.05;;;7.32;;
10343;SDS011;5217;43.960;10.954;2024-03-29T12:40:28;27.27;;;6.68;;
10343;SDS011;5217;43.960;10.954;2024-03-29T12:43:02;33.08;;;6.63;;
10343;SDS011;5217;43.960;10.954;2024-03-29T12:45:30;35.00;;;7.00;;
10343;SDS011;5217;43.960;10.954;2024-03-29T12:47:57;39.22;;;8.23;;
10343;SDS011;5217;43.960;10.954;2024-03-29T12:50:26;28.23;;;7.50;;
10343;SDS011;5217;43.960;10.954;2024-03-29T12:52:54;32.40;;;7.00;;
10343;SDS011;5217;43.960;10.954;2024-03-29T12:55:23;29.95;;;7.13;;
10343;SDS011;5217;43.960;10.954;2024-03-29T12:57:55;35.30;;;8.18;;
10343;SDS011;5217;43.960;10.954;2024-03-29T13:00:25;41.92;;;7.88;;
10343;SDS011;5217;43.960;10.954;2024-03-29T13:02:53;30.02;;;7.65;;
10343;SDS011;5217;43.960;10.954;2024-03-29T13:05:21;36.70;;;7.90;;
10343;SDS011;5217;43.960;10.954;2024-03-29T13:07:49;41.42;;;7.85;;
10343;SDS011;5217;43.960;10.954;2024-03-29T13:10:17;44.15;;;9.02;;
10343;SDS011;5217;43.960;10.954;2024-03-29T13:12:47;42.33;;;8.38;;
10343;SDS011;5217;43.960;10.954;2024-03-29T13:15:17;40.30;;;8.48;;
10343;SDS011;5217;43.960;10.954;2024-03-29T13:17:45;38.88;;;8.43;;
10343;SDS011;5217;43.960;10.954;2024-03-29T13:20:13;32.83;;;7.60;;
10343;SDS011;5217;43.960;10.954;2024-03-29T13:22:41;38.20;;;8.13;;
10343;SDS011;5217;43.960;10.954;2024-03-29T13:25:11;32.25;;;7.90;;
10343;SDS011;5217;43.960;10.954;2024-03-29T13:27:39;39.13;;;8.38;;
10343;SDS011;5217;43.960;10.954;2024-03-29T13:30:09;46.38;;;9.50;;
10343;SDS011;5217;43.960;10.954;2024-03-29T13:32:37;45.55;;;9.43;;
10343;SDS011;5217;43.960;10.954;2024-03-29T13:35:06;47.75;;;9.75;;
10343;SDS011;5217;43.960;10.954;2024-03-29T13:37:36;46.20;;;9.35;;
10343;SDS011;5217;43.960;10.954;2024-03-29T13:40:05;52.00;;;9.93;;
10343;SDS011;5217;43.960;10.954;2024-03-29T13:42:33;51.65;;;10.20;;
10343;SDS011;5217;43.960;10.954;2024-03-29T13:45:01;55.00;;;10.05;;
10343;SDS011;5217;43.960;10.954;2024-03-29T13:47:30;58.60;;;10.80;;
10343;SDS011;5217;43.960;10.954;2024-03-29T13:49:59;52.60;;;10.02;;
10343;SDS011;5217;43.960;10.954;2024-03-29T13:52:25;47.00;;;9.60;;
10343;SDS011;5217;43.960;10.954;2024-03-29T13:54:53;52.55;;;10.23;;
10343;SDS011;5217;43.960;10.954;2024-03-29T13:57:21;58.10;;;9.80;;
10343;SDS011;5217;43.960;10.954;2024-03-29T13:59:48;52.08;;;9.38;;
10343;SDS011;5217;43.960;10.954;2024-03-29T14:02:16;66.00;;;11.82;;
10343;SDS011;5217;43.960;10.954;2024-03-29T14:04:46;53.35;;;9.25;;
10343;SDS011;5217;43.960;10.954;2024-03-29T14:07:16;41.22;;;9.20;;
10343;SDS011;5217;43.960;10.954;2024-03-29T14:09:43;55.58;;;10.80;;
10343;SDS011;5217;43.960;10.954;2024-03-29T14:12:12;46.85;;;12.80;;
10343;SDS011;5217;43.960;10.954;2024-03-29T14:14:40;62.78;;;14.68;;
10343;SDS011;5217;43.960;10.954;2024-03-29T14:17:08;47.33;;;16.02;;
10343;SDS011;5217;43.960;10.954;2024-03-29T14:19:35;43.58;;;12.00;;
10343;SDS011;5217;43.960;10.954;2024-03-29T14:22:05;56.45;;;12.77;;
10343;SDS011;5217;43.960;10.954;2024-03-29T14:24:33;64.05;;;11.82;;
10343;SDS011;5217;43.960;10.954;2024-03-29T14:27:02;70.18;;;12.30;;
10343;SDS011;5217;43.960;10.954;2024-03-29T14:29:30;60.83;;;11.73;;
10343;SDS011;5217;43.960;10.954;2024-03-29T14:31:57;55.53;;;11.32;;
10343;SDS011;5217;43.960;10.954;2024-03-29T14:34:26;70.32;;;13.40;;
10343;SDS011;5217;43.960;10.954;2024-03-29T14:36:57;60.97;;;11.93;;
10343;SDS011;5217;43.960;10.954;2024-03-29T14:39:26;66.45;;;11.68;;